Time;durP1;ratioP1;P1;durP2;ratioP2;P2;SDS_P1;SDS_P2;PMS_P1;PMS_P2;Temp;Humidity;BMP_temperature;BMP_pressure;BME280_temperature;BME280_humidity;BME280_pressure;Samples;Min_cycle;Max_cycle;Signal;HPM_P1;HPM_P2
2023/03/07 00:01:41;;;;;;;14.18;6.57;;;;;;;9.15;85.19;99356.38;4946702;29;20139;-84
2023/03/07 00:04:07;;;;;;;19.60;7.32;;;;;;;9.06;86.71;99360.13;4948239;29;20040;-83
2023/03/07 00:06:32;;;;;;;20.23;7.80;;;;;;;8.96;88.20;99349.00;4947320;29;20048;-88
2023/03/07 00:09:00;;;;;;;19.63;7.05;;;;;;;8.96;87.88;99354.28;4948643;29;20032;-85
2023/03/07 00:11:29;;;;;;;16.48;7.30;;;;;;;8.90;87.67;99355.81;4948090;29;20036;-83
2023/03/07 00:13:55;;;;;;;17.52;7.55;;;;;;;8.87;87.98;99356.19;4948259;29;20447;-88
2023/03/07 00:16:22;;;;;;;22.55;7.55;;;;;;;8.93;87.74;99350.19;4936833;29;20448;-87
2023/03/07 00:18:49;;;;;;;14.27;7.47;;;;;;;8.95;87.71;99363.22;4941159;29;20040;-87
2023/03/07 00:21:17;;;;;;;16.92;7.30;;;;;;;9.00;87.64;99356.41;4923880;29;20038;-85
2023/03/07 00:23:44;;;;;;;19.83;7.15;;;;;;;9.06;87.16;99352.19;4941525;29;20027;-86
2023/03/07 00:26:18;;;;;;;15.23;7.13;;;;;;;9.13;86.23;99345.19;4940577;29;20035;-87
2023/03/07 00:28:49;;;;;;;17.83;6.95;;;;;;;9.22;85.95;99355.50;4941572;29;20063;-85
2023/03/07 00:31:16;;;;;;;17.25;7.72;;;;;;;9.21;85.42;99353.03;4928639;29;20032;-87
2023/03/07 00:33:41;;;;;;;20.35;7.47;;;;;;;9.15;86.20;99351.09;4950743;29;20043;-85
2023/03/07 00:36:10;;;;;;;16.50;8.30;;;;;;;9.12;86.13;99348.81;4959252;29;20019;-86
2023/03/07 00:38:36;;;;;;;16.63;7.70;;;;;;;9.13;87.21;99346.00;4943292;29;20040;-84
2023/03/07 00:41:07;;;;;;;15.82;6.65;;;;;;;9.20;87.59;99335.53;4942834;29;20100;-88
2023/03/07 00:43:34;;;;;;;15.35;7.45;;;;;;;9.26;87.30;99329.50;4935998;29;20035;-86
2023/03/07 00:46:00;;;;;;;18.33;7.50;;;;;;;9.42;86.03;99334.59;4942581;29;20047;-85
2023/03/07 00:48:27;;;;;;;22.13;7.30;;;;;;;9.48;85.01;99333.88;4943415;29;20090;-85
2023/03/07 00:50:53;;;;;;;21.92;7.57;;;;;;;9.64;84.00;99338.97;4939395;29;20039;-88
2023/03/07 00:53:20;;;;;;;13.30;6.90;;;;;;;9.65;83.76;99337.97;4946675;29;20032;-84
2023/03/07 00:56:03;;;;;;;18.15;7.53;;;;;;;9.68;83.44;99334.94;4962956;29;20036;-84
2023/03/07 00:58:35;;;;;;;22.40;8.52;;;;;;;9.58;84.39;99337.06;4943299;29;20135;-84
2023/03/07 01:01:02;;;;;;;19.23;8.18;;;;;;;9.66;83.88;99342.25;4923030;29;20501;-85
2023/03/07 01:03:29;;;;;;;17.40;8.68;;;;;;;9.60;84.51;99336.88;4941841;29;20027;-83
2023/03/07 01:05:57;;;;;;;15.05;7.43;;;;;;;9.59;85.24;99333.41;4924863;29;20395;-84
2023/03/07 01:08:23;;;;;;;17.83;7.95;;;;;;;9.83;82.96;99333.09;4923840;29;20074;-84
2023/03/07 01:10:49;;;;;;;14.80;7.25;;;;;;;9.77;83.69;99331.19;4923563;29;20375;-88
2023/03/07 01:13:16;;;;;;;15.20;7.60;;;;;;;9.91;83.65;99334.00;4924201;29;20040;-86
2023/03/07 01:15:42;;;;;;;17.90;8.15;;;;;;;9.91;82.70;99323.41;4940695;29;20039;-86
2023/03/07 01:18:08;;;;;;;19.90;8.10;;;;;;;9.88;82.79;99326.44;4925401;29;20039;-86
2023/03/07 01:20:36;;;;;;;15.65;6.82;;;;;;;9.85;81.85;99320.50;4925482;29;20541;-87
2023/03/07 01:23:03;;;;;;;22.38;7.82;;;;;;;9.73;82.37;99318.53;4923290;29;20115;-84
2023/03/07 01:25:29;;;;;;;20.50;7.35;;;;;;;9.64;83.68;99317.00;4941529;29;20062;-86
2023/03/07 01:27:54;;;;;;;21.67;7.95;;;;;;;9.53;84.26;99310.34;4923472;29;20506;-86
2023/03/07 01:30:25;;;;;;;15.05;7.10;;;;;;;9.66;83.29;99309.69;4922922;29;20028;-84
2023/03/07 01:32:55;;;;;;;15.10;6.72;;;;;;;9.64;81.53;99312.53;4940761;29;20043;-86
2023/03/07 01:35:21;;;;;;;15.25;6.90;;;;;;;9.40;82.98;99312.00;4940152;29;20058;-85
2023/03/07 01:37:48;;;;;;;13.23;6.85;;;;;;;9.47;82.05;99311.09;4940394;29;20035;-85
2023/03/07 01:40:14;;;;;;;16.20;6.60;;;;;;;9.25;83.72;99301.44;4941588;29;20040;-87
2023/03/07 01:42:40;;;;;;;14.85;7.18;;;;;;;9.30;83.14;99291.13;4909906;29;20087;-85
2023/03/07 01:45:07;;;;;;;14.70;6.03;;;;;;;9.45;82.36;99301.69;4908795;29;20106;-87
2023/03/07 01:47:42;;;;;;;14.30;6.55;;;;;;;9.47;81.96;99292.59;4924284;29;20134;-86
2023/03/07 01:50:13;;;;;;;21.02;7.53;;;;;;;9.52;82.30;99287.53;4925743;29;20038;-85
2023/03/07 01:52:44;;;;;;;16.65;6.60;;;;;;;9.54;82.14;99285.56;4925023;29;20043;-86
2023/03/07 01:55:23;;;;;;;16.30;6.70;;;;;;;9.73;80.28;99278.84;4940091;29;20027;-86
2023/03/07 01:57:54;;;;;;;18.33;6.80;;;;;;;9.82;79.21;99275.88;4923583;29;20385;-86
2023/03/07 02:00:28;;;;;;;14.57;5.80;;;;;;;9.93;78.11;99271.09;4923447;29;20043;-85
2023/03/07 02:03:09;;;;;;;16.80;6.43;;;;;;;10.09;77.38;99273.50;4940991;29;20035;-89
2023/03/07 02:05:46;;;;;;;22.20;6.60;;;;;;;10.00;77.39;99270.16;4924456;29;20036;-83
2023/03/07 02:08:15;;;;;;;17.90;6.10;;;;;;;9.91;78.90;99275.78;4943284;29;20062;-87
2023/03/07 02:10:41;;;;;;;15.02;7.05;;;;;;;9.93;78.15;99268.47;4930812;29;20048;-86
2023/03/07 02:13:08;;;;;;;23.13;6.95;;;;;;;10.02;77.74;99265.50;4947663;29;20067;-86
2023/03/07 02:15:35;;;;;;;16.83;7.38;;;;;;;9.86;79.46;99268.38;4930243;29;20090;-86
2023/03/07 02:18:01;;;;;;;17.48;7.07;;;;;;;9.90;79.95;99274.13;4927410;29;20467;-87
2023/03/07 02:20:36;;;;;;;18.35;6.88;;;;;;;9.74;80.95;99265.41;4907081;29;20042;-87
2023/03/07 02:23:03;;;;;;;21.52;6.70;;;;;;;9.68;82.03;99271.44;4924901;29;20039;-86
2023/03/07 02:25:43;;;;;;;16.85;7.03;;;;;;;9.69;81.98;99267.81;4921639;29;20048;-87
2023/03/07 02:28:13;;;;;;;11.55;6.43;;;;;;;9.63;82.98;99268.56;4921425;29;20122;-85
2023/03/07 02:30:53;;;;;;;18.35;7.03;;;;;;;9.57;83.98;99279.88;4921646;29;20040;-86
2023/03/07 02:33:23;;;;;;;21.95;7.25;;;;;;;9.60;84.46;99276.88;4921722;29;20031;-85
2023/03/07 02:36:04;;;;;;;21.88;7.43;;;;;;;9.48;85.54;99270.41;4922096;29;20045;-85
2023/03/07 02:38:35;;;;;;;20.20;7.68;;;;;;;9.51;84.92;99270.03;4921433;29;20055;-87
2023/03/07 02:41:02;;;;;;;22.58;7.32;;;;;;;9.51;82.40;99272.66;4937353;29;20032;-84
2023/03/07 02:43:28;;;;;;;24.60;8.00;;;;;;;9.31;82.53;99267.13;4921140;29;20036;-84
2023/03/07 02:45:54;;;;;;;20.67;8.00;;;;;;;9.25;83.57;99270.53;4920939;29;20087;-85
2023/03/07 02:48:20;;;;;;;24.50;8.45;;;;;;;9.32;83.29;99267.97;4921078;29;20485;-85
2023/03/07 02:50:47;;;;;;;23.95;9.80;;;;;;;9.14;83.62;99267.53;4920618;29;20480;-84
2023/03/07 02:53:13;;;;;;;16.98;8.45;;;;;;;9.30;83.08;99262.06;4937284;29;20091;-86
2023/03/07 02:55:38;;;;;;;18.02;8.60;;;;;;;9.02;84.21;99259.25;4919632;29;20458;-86
2023/03/07 02:58:05;;;;;;;19.92;8.75;;;;;;;8.96;83.05;99265.25;4919837;29;20042;-85
2023/03/07 03:00:30;;;;;;;23.08;10.10;;;;;;;8.95;83.41;99262.81;4920125;29;20024;-86
2023/03/07 03:02:57;;;;;;;19.80;8.85;;;;;;;8.72;83.88;99273.44;4938187;29;20130;-85
2023/03/07 03:05:22;;;;;;;18.73;8.35;;;;;;;8.72;85.61;99279.53;4922617;29;20039;-84
2023/03/07 03:07:51;;;;;;;17.90;8.63;;;;;;;8.57;85.48;99276.06;4941914;29;20039;-81
2023/03/07 03:10:18;;;;;;;22.70;9.35;;;;;;;8.40;86.75;99273.75;4954408;29;20066;-85
2023/03/07 03:12:45;;;;;;;23.48;9.13;;;;;;;8.27;88.43;99271.69;4955727;29;20471;-85
2023/03/07 03:15:11;;;;;;;14.45;8.65;;;;;;;8.24;90.03;99269.41;4951513;29;20118;-84
2023/03/07 03:17:37;;;;;;;24.63;10.05;;;;;;;8.17;90.29;99265.84;4947204;29;20079;-83
2023/03/07 03:20:08;;;;;;;17.40;9.15;;;;;;;8.34;90.24;99266.56;4955916;29;20042;-87
2023/03/07 03:22:34;;;;;;;22.33;8.82;;;;;;;8.45;89.07;99264.28;4946851;29;20067;-83
2023/03/07 03:25:03;;;;;;;21.42;9.45;;;;;;;8.40;88.72;99264.00;4938560;29;20039;-85
2023/03/07 03:27:31;;;;;;;25.40;9.18;;;;;;;8.51;87.88;99255.69;4953614;29;20046;-84
2023/03/07 03:29:57;;;;;;;24.45;8.80;;;;;;;8.45;87.59;99259.00;4949889;29;20414;-83
2023/03/07 03:32:23;;;;;;;23.13;8.05;;;;;;;8.56;86.01;99255.13;4954417;29;20027;-85
2023/03/07 03:34:48;;;;;;;15.52;7.50;;;;;;;8.66;86.49;99243.28;4960180;29;20047;-83
2023/03/07 03:37:14;;;;;;;22.70;8.48;;;;;;;8.59;86.93;99252.94;4966565;29;20047;-83
2023/03/07 03:39:40;;;;;;;23.15;8.80;;;;;;;8.43;89.47;99257.56;4949245;29;20066;-85
2023/03/07 03:42:06;;;;;;;18.60;8.75;;;;;;;8.48;90.35;99261.31;4955747;28;20538;-83
2023/03/07 03:44:35;;;;;;;25.33;8.77;;;;;;;8.45;89.25;99261.66;4938582;29;20159;-86
2023/03/07 03:47:20;;;;;;;19.00;8.25;;;;;;;8.67;87.96;99255.50;4956354;29;20542;-83
2023/03/07 03:49:46;;;;;;;21.27;8.75;;;;;;;8.48;88.06;99258.69;4975309;28;20023;-84
2023/03/07 03:52:11;;;;;;;18.88;8.93;;;;;;;8.33;90.65;99255.16;4979010;28;20094;-86
2023/03/07 03:54:37;;;;;;;19.20;8.70;;;;;;;8.25;92.11;99256.03;4970641;28;20059;-85
2023/03/07 03:57:03;;;;;;;17.77;9.13;;;;;;;8.26;92.35;99262.13;4973294;29;20041;-84
2023/03/07 03:59:29;;;;;;;18.77;9.20;;;;;;;8.07;94.07;99254.69;4953979;29;20417;-82
2023/03/07 04:01:55;;;;;;;20.15;9.38;;;;;;;8.16;94.35;99257.09;4949014;29;20050;-84
2023/03/07 04:04:21;;;;;;;18.65;8.70;;;;;;;8.40;92.92;99253.47;4954211;29;20027;-85
2023/03/07 04:06:47;;;;;;;18.65;9.15;;;;;;;8.40;92.92;99253.47;4954835;29;20506;-85
2023/03/07 04:09:12;;;;;;;20.35;9.10;;;;;;;8.46;91.52;99255.38;4952543;29;20031;-83
2023/03/07 04:11:42;;;;;;;25.65;8.40;;;;;;;8.72;90.32;99258.41;4948623;29;20099;-84
2023/03/07 04:14:10;;;;;;;18.92;8.20;;;;;;;8.54;89.31;99255.31;4955248;28;20027;-86
2023/03/07 04:16:36;;;;;;;20.10;8.80;;;;;;;8.67;90.03;99249.41;4955874;29;20031;-84
2023/03/07 04:19:01;;;;;;;17.13;8.80;;;;;;;8.44;91.95;99259.19;4949944;29;20050;-84
2023/03/07 04:21:27;;;;;;;16.45;9.15;;;;;;;8.16;95.39;99256.28;4953615;29;20589;-85
2023/03/07 04:23:57;;;;;;;19.98;8.48;;;;;;;8.42;94.20;99261.22;4933245;29;20082;-83
2023/03/07 04:26:24;;;;;;;17.88;9.40;;;;;;;8.30;94.96;99258.16;4953632;29;20031;-84
2023/03/07 04:28:50;;;;;;;22.65;9.38;;;;;;;8.43;93.90;99263.66;4951368;28;20039;-86
2023/03/07 04:31:26;;;;;;;18.23;8.63;;;;;;;8.23;94.56;99262.47;4957791;28;20074;-84
2023/03/07 04:33:53;;;;;;;24.90;9.52;;;;;;;8.01;98.50;99273.88;4960262;28;20168;-85
2023/03/07 04:36:20;;;;;;;22.02;9.65;;;;;;;8.13;98.29;99267.19;4978548;28;20106;-87
2023/03/07 04:38:46;;;;;;;18.55;9.23;;;;;;;8.19;97.54;99269.94;4973800;28;20090;-84
2023/03/07 04:41:18;;;;;;;21.75;9.07;;;;;;;8.03;98.88;99270.06;4956471;28;20117;-84
2023/03/07 04:43:45;;;;;;;20.27;9.50;;;;;;;7.97;99.94;99259.38;4940646;28;20478;-86
2023/03/07 04:46:12;;;;;;;17.30;8.80;;;;;;;8.15;98.33;99265.19;4956118;28;20042;-86
2023/03/07 04:48:38;;;;;;;21.77;10.00;;;;;;;8.08;98.50;99256.34;4956000;28;20117;-83
2023/03/07 04:51:04;;;;;;;19.80;9.23;;;;;;;7.92;98.77;99259.13;4973784;28;20034;-83
2023/03/07 04:53:30;;;;;;;17.88;9.52;;;;;;;7.75;100.00;99266.31;4956069;28;20069;-83
2023/03/07 04:55:58;;;;;;;21.45;9.93;;;;;;;7.59;100.00;99274.31;4956019;28;20039;-86
2023/03/07 04:58:24;;;;;;;22.45;10.23;;;;;;;7.47;100.00;99265.13;4974229;28;20042;-87
2023/03/07 05:00:50;;;;;;;21.52;9.82;;;;;;;7.72;100.00;99270.09;4973784;28;20035;-86
2023/03/07 05:03:16;;;;;;;23.23;9.68;;;;;;;7.51;100.00;99267.28;4956042;28;20033;-84
2023/03/07 05:05:41;;;;;;;22.23;10.45;;;;;;;7.45;100.00;99270.59;4959978;28;20038;-87
2023/03/07 05:08:08;;;;;;;23.17;10.18;;;;;;;7.12;100.00;99267.31;4962605;28;20031;-85
2023/03/07 05:10:35;;;;;;;23.38;10.18;;;;;;;7.05;100.00;99271.59;4980392;28;20095;-86
2023/03/07 05:13:02;;;;;;;27.63;10.50;;;;;;;7.19;100.00;99267.44;4951701;29;20039;-86
2023/03/07 05:15:28;;;;;;;18.85;10.38;;;;;;;7.13;100.00;99268.09;4953645;29;20081;-85
2023/03/07 05:17:54;;;;;;;21.92;10.68;;;;;;;7.45;100.00;99273.25;4957566;29;20047;-85
2023/03/07 05:20:19;;;;;;;25.58;10.63;;;;;;;7.46;100.00;99272.22;4972732;29;20035;-83
2023/03/07 05:22:45;;;;;;;23.88;10.65;;;;;;;7.38;100.00;99264.38;4966122;29;20501;-81
2023/03/07 05:25:11;;;;;;;25.25;11.73;;;;;;;7.11;100.00;99267.44;4941434;29;20039;-85
2023/03/07 05:27:37;;;;;;;38.28;12.48;;;;;;;6.91;100.00;99268.84;4925813;29;20042;-86
2023/03/07 05:30:04;;;;;;;24.13;10.75;;;;;;;6.72;100.00;99265.59;4941225;29;20402;-87
2023/03/07 05:32:30;;;;;;;20.98;11.43;;;;;;;6.68;100.00;99269.56;4944789;29;20086;-86
2023/03/07 05:34:56;;;;;;;26.75;12.40;;;;;;;6.66;100.00;99270.72;4925083;29;20117;-85
2023/03/07 05:37:22;;;;;;;27.77;11.98;;;;;;;6.70;100.00;99278.09;4947561;29;20129;-84
2023/03/07 05:39:52;;;;;;;30.45;12.50;;;;;;;6.55;100.00;99286.84;4951332;29;20063;-84
2023/03/07 05:42:18;;;;;;;29.30;12.65;;;;;;;6.53;100.00;99280.94;4957501;28;20049;-84
2023/03/07 05:44:46;;;;;;;24.63;11.70;;;;;;;6.50;100.00;99284.72;4950720;29;20043;-82
2023/03/07 05:47:11;;;;;;;24.85;12.02;;;;;;;6.52;100.00;99284.56;4956766;29;20090;-82
2023/03/07 05:49:37;;;;;;;34.67;13.10;;;;;;;6.47;100.00;99292.13;4948689;29;20047;-81
2023/03/07 05:52:03;;;;;;;32.40;12.88;;;;;;;6.30;100.00;99298.41;4955796;29;20049;-83
2023/03/07 05:54:28;;;;;;;26.95;12.55;;;;;;;6.42;100.00;99292.63;4955778;29;20039;-82
2023/03/07 05:56:54;;;;;;;32.83;12.60;;;;;;;6.43;100.00;99299.50;4950553;29;20042;-84
2023/03/07 05:59:19;;;;;;;28.73;11.65;;;;;;;6.62;100.00;99293.94;4955321;29;20367;-83
2023/03/07 06:01:48;;;;;;;29.13;12.18;;;;;;;6.78;100.00;99300.13;4933215;29;20027;-82
2023/03/07 06:04:14;;;;;;;26.92;12.32;;;;;;;6.76;100.00;99314.28;4954618;28;20038;-82
2023/03/07 06:06:39;;;;;;;25.35;11.50;;;;;;;6.73;100.00;99308.53;4954489;29;20035;-85
2023/03/07 06:09:05;;;;;;;30.80;11.18;;;;;;;6.76;100.00;99311.66;4950501;29;20045;-87
2023/03/07 06:11:32;;;;;;;39.83;12.07;;;;;;;6.72;100.00;99323.53;4954918;29;20106;-83
2023/03/07 06:13:57;;;;;;;23.08;10.95;;;;;;;6.78;100.00;99318.56;4960214;28;20075;-85
2023/03/07 06:16:23;;;;;;;36.85;12.23;;;;;;;7.02;100.00;99308.81;4953492;28;20611;-83
2023/03/07 06:18:49;;;;;;;24.60;11.55;;;;;;;7.29;100.00;99321.56;4955342;29;20035;-84
2023/03/07 06:21:17;;;;;;;33.47;12.60;;;;;;;7.40;100.00;99323.00;4963698;29;20031;-84
2023/03/07 06:23:44;;;;;;;36.75;12.38;;;;;;;7.38;100.00;99318.91;4954055;29;20078;-84
2023/03/07 06:26:13;;;;;;;23.25;11.93;;;;;;;7.78;100.00;99322.16;4944689;29;20046;-88
2023/03/07 06:28:44;;;;;;;23.73;11.50;;;;;;;8.09;100.00;99335.31;4957446;28;20580;-85
2023/03/07 06:31:15;;;;;;;33.47;12.07;;;;;;;8.13;100.00;99330.50;4950517;29;20418;-83
2023/03/07 06:33:41;;;;;;;23.80;12.02;;;;;;;8.93;100.00;99328.22;4941208;29;20031;-84
2023/03/07 06:36:09;;;;;;;41.20;14.75;;;;;;;8.79;98.57;99327.19;4945829;29;20043;-83
2023/03/07 06:38:37;;;;;;;41.13;14.18;;;;;;;8.83;100.00;99317.91;4949401;29;20034;-82
2023/03/07 06:41:03;;;;;;;36.15;13.00;;;;;;;9.57;95.41;99316.09;4944837;29;20102;-83
2023/03/07 06:43:29;;;;;;;37.08;13.93;;;;;;;9.74;90.55;99322.81;4966040;29;20046;-85
2023/03/07 06:45:55;;;;;;;35.13;13.23;;;;;;;9.71;90.79;99325.84;4953116;29;20031;-87
2023/03/07 06:48:24;;;;;;;29.98;10.82;;;;;;;9.45;91.40;99321.00;4963045;28;20019;-87
2023/03/07 06:50:49;;;;;;;26.73;11.73;;;;;;;9.44;94.10;99321.22;5025015;23;20033;-86
2023/03/07 06:53:15;;;;;;;30.80;12.93;;;;;;;9.90;89.63;99324.41;5001379;28;20023;-85
2023/03/07 06:55:41;;;;;;;32.00;12.50;;;;;;;10.04;89.74;99324.34;5010097;28;20039;-86
2023/03/07 06:58:09;;;;;;;31.50;13.23;;;;;;;9.41;92.05;99327.69;4978041;28;20033;-86
2023/03/07 07:00:35;;;;;;;28.88;13.55;;;;;;;9.41;93.64;99325.06;4962222;28;20030;-85
2023/03/07 07:03:01;;;;;;;36.00;13.38;;;;;;;10.31;86.20;99326.28;4977053;28;20042;-88
2023/03/07 07:05:27;;;;;;;33.55;14.10;;;;;;;10.79;82.02;99319.38;4995389;28;20397;-87
2023/03/07 07:07:52;;;;;;;34.42;13.25;;;;;;;10.68;83.21;99330.47;4977825;28;20046;-86
2023/03/07 07:10:18;;;;;;;31.40;13.27;;;;;;;11.28;79.39;99327.22;4994922;28;20030;-87
2023/03/07 07:12:43;;;;;;;33.72;14.10;;;;;;;11.46;78.71;99337.34;4977756;28;20034;-87
2023/03/07 07:15:10;;;;;;;32.92;12.85;;;;;;;11.77;75.39;99340.34;4978051;28;20034;-85
2023/03/07 07:17:37;;;;;;;22.38;12.23;;;;;;;11.45;76.76;99340.16;4973418;28;20038;-85
2023/03/07 07:20:05;;;;;;;26.40;12.43;;;;;;;11.66;75.03;99338.25;4937234;28;20445;-85
2023/03/07 07:22:31;;;;;;;26.10;12.65;;;;;;;12.67;70.28;99341.75;4971455;28;20031;-83
2023/03/07 07:24:57;;;;;;;30.50;13.73;;;;;;;13.41;67.07;99340.50;4974989;28;20048;-86
2023/03/07 07:27:23;;;;;;;35.78;17.15;;;;;;;13.02;66.02;99353.00;4991235;28;20034;-87
2023/03/07 07:29:48;;;;;;;39.85;16.27;;;;;;;12.49;72.26;99350.34;4977332;28;20553;-84
2023/03/07 07:32:14;;;;;;;39.35;16.30;;;;;;;12.66;72.36;99351.56;4994485;28;20026;-85
2023/03/07 07:34:40;;;;;;;34.13;15.40;;;;;;;12.52;73.88;99349.13;4976621;28;20030;-86
2023/03/07 07:37:09;;;;;;;40.15;14.30;;;;;;;12.76;70.76;99348.53;4976485;28;20057;-86
2023/03/07 07:39:34;;;;;;;35.05;14.75;;;;;;;13.51;67.34;99342.72;4994864;28;20072;-85
2023/03/07 07:42:00;;;;;;;39.17;14.30;;;;;;;13.33;67.12;99347.84;4978171;28;20117;-86
2023/03/07 07:44:30;;;;;;;29.33;13.82;;;;;;;12.67;72.29;99357.72;4960625;28;20380;-85
2023/03/07 07:46:58;;;;;;;30.33;14.52;;;;;;;12.90;74.48;99352.81;4977536;28;20102;-85
2023/03/07 07:49:23;;;;;;;33.28;15.70;;;;;;;12.79;72.21;99354.22;4977209;28;20156;-86
2023/03/07 07:51:49;;;;;;;34.10;14.38;;;;;;;13.86;67.50;99346.66;4990257;28;20070;-85
2023/03/07 07:54:14;;;;;;;27.85;15.25;;;;;;;14.59;63.24;99355.06;4979835;28;20132;-87
2023/03/07 07:56:41;;;;;;;31.63;16.10;;;;;;;14.50;62.48;99359.03;4977061;28;20468;-86
2023/03/07 07:59:06;;;;;;;30.25;14.80;;;;;;;14.50;64.06;99356.38;4993688;28;20106;-86
2023/03/07 08:01:33;;;;;;;26.05;14.77;;;;;;;15.14;61.44;99364.06;4976236;28;20034;-85
2023/03/07 08:03:59;;;;;;;27.65;14.23;;;;;;;15.87;56.29;99367.63;4993982;28;20035;-88
2023/03/07 08:06:26;;;;;;;37.92;15.88;;;;;;;16.02;55.61;99364.56;4976762;28;20065;-86
2023/03/07 08:08:53;;;;;;;35.70;14.25;;;;;;;16.74;52.76;99368.88;4994224;28;20038;-85
2023/03/07 08:11:20;;;;;;;28.42;14.25;;;;;;;16.76;54.38;99374.84;4993525;28;20104;-85
2023/03/07 08:13:45;;;;;;;31.95;15.07;;;;;;;16.06;54.07;99363.06;4994248;28;20066;-88
2023/03/07 08:16:13;;;;;;;27.60;13.45;;;;;;;17.16;53.20;99369.66;4993572;28;20116;-86
2023/03/07 08:18:39;;;;;;;33.17;14.00;;;;;;;17.36;51.44;99369.28;4994476;28;20450;-88
2023/03/07 08:21:06;;;;;;;33.53;14.23;;;;;;;17.86;47.62;99366.91;4994370;28;20516;-88
2023/03/07 08:23:31;;;;;;;28.70;13.93;;;;;;;18.62;44.99;99369.19;4993853;28;20521;-87
2023/03/07 08:26:05;;;;;;;31.52;13.65;;;;;;;18.05;46.09;99366.50;4994123;28;20122;-86
2023/03/07 08:28:31;;;;;;;31.60;13.93;;;;;;;17.91;46.19;99373.19;4993636;28;20101;-85
2023/03/07 08:30:57;;;;;;;24.75;13.70;;;;;;;17.69;48.09;99374.88;4993174;28;20496;-84
2023/03/07 08:33:22;;;;;;;32.17;16.13;;;;;;;18.24;46.69;99380.53;4993092;28;20034;-86
2023/03/07 08:35:49;;;;;;;27.52;13.77;;;;;;;17.99;47.07;99369.34;4993592;28;20034;-87
2023/03/07 08:38:14;;;;;;;28.27;13.32;;;;;;;17.91;47.30;99372.38;4993611;28;20437;-86
2023/03/07 08:40:40;;;;;;;28.45;14.27;;;;;;;18.60;45.54;99365.94;4997398;28;20034;-86
2023/03/07 08:43:05;;;;;;;26.52;14.70;;;;;;;19.30;44.53;99365.44;4997250;28;20041;-89
2023/03/07 08:45:31;;;;;;;32.25;14.30;;;;;;;18.82;44.75;99360.69;4997108;28;20085;-90
2023/03/07 08:47:58;;;;;;;25.35;14.18;;;;;;;17.39;48.92;99360.78;4997041;28;20038;-88
2023/03/07 08:50:26;;;;;;;27.13;14.00;;;;;;;18.00;48.76;99353.00;4997262;28;20465;-86
2023/03/07 08:52:52;;;;;;;26.25;14.35;;;;;;;17.77;48.55;99353.06;4995908;28;20113;-88
2023/03/07 08:55:18;;;;;;;31.95;15.27;;;;;;;17.21;51.00;99360.91;4996400;28;20134;-88
2023/03/07 08:57:46;;;;;;;27.60;15.48;;;;;;;18.25;49.31;99350.00;4978868;28;20101;-86
2023/03/07 09:00:13;;;;;;;28.58;14.50;;;;;;;18.14;49.61;99341.97;4996401;28;20034;-89
2023/03/07 09:02:39;;;;;;;27.95;13.80;;;;;;;19.51;44.65;99345.88;4996695;28;20037;-88
2023/03/07 09:05:05;;;;;;;29.88;14.57;;;;;;;18.91;45.12;99351.16;4979084;28;20034;-88
2023/03/07 09:07:30;;;;;;;31.75;15.32;;;;;;;17.72;48.12;99347.59;4996716;28;20034;-87
2023/03/07 09:09:56;;;;;;;27.88;13.40;;;;;;;18.02;48.06;99337.50;4997362;28;20559;-87
2023/03/07 09:12:21;;;;;;;28.25;14.15;;;;;;;17.70;50.69;99349.69;4979281;28;20049;-86
2023/03/07 09:14:47;;;;;;;35.05;13.90;;;;;;;17.39;50.85;99342.03;4996657;28;20026;-89
2023/03/07 09:17:13;;;;;;;33.47;14.00;;;;;;;17.94;49.63;99335.19;4996443;28;20393;-86
2023/03/07 09:19:38;;;;;;;27.38;13.45;;;;;;;18.64;47.48;99329.50;4996421;28;20057;-88
2023/03/07 09:22:04;;;;;;;34.20;13.05;;;;;;;18.64;46.64;99334.88;4996535;28;20396;-89
2023/03/07 09:24:30;;;;;;;30.33;13.98;;;;;;;18.76;46.50;99334.81;4979077;28;20034;-88
2023/03/07 09:26:56;;;;;;;30.25;12.60;;;;;;;19.03;46.50;99341.13;4996546;28;20121;-88
2023/03/07 09:29:22;;;;;;;27.40;13.15;;;;;;;19.13;44.46;99337.78;4996674;28;20065;-87
2023/03/07 09:31:49;;;;;;;28.15;12.63;;;;;;;17.85;47.85;99330.44;4996272;28;20038;-89
2023/03/07 09:34:15;;;;;;;28.48;13.15;;;;;;;18.08;47.03;99330.34;4998898;28;20054;-84
2023/03/07 09:36:40;;;;;;;24.90;13.15;;;;;;;17.58;48.45;99337.38;4991168;28;20049;-84
2023/03/07 09:39:06;;;;;;;25.98;13.70;;;;;;;17.58;49.16;99332.03;5005339;28;20034;-86
2023/03/07 09:41:32;;;;;;;27.17;13.00;;;;;;;17.67;49.03;99328.72;5004664;28;20049;-85
2023/03/07 09:44:14;;;;;;;24.92;11.48;;;;;;;18.68;46.35;99332.53;4999864;28;20030;-84
2023/03/07 09:47:24;;;;;;;29.95;11.30;;;;;;;18.64;45.43;99328.69;5018804;28;20054;-85
2023/03/07 09:49:51;;;;;;;23.05;12.05;;;;;;;18.07;46.83;99328.72;5008619;28;20069;-86
2023/03/07 09:52:31;;;;;;;27.83;13.07;;;;;;;18.31;48.45;99324.06;4995797;28;20040;-87
2023/03/07 09:55:00;;;;;;;24.80;12.57;;;;;;;19.21;45.17;99318.56;4996369;28;20038;-87
2023/03/07 09:57:32;;;;;;;23.85;11.20;;;;;;;19.20;44.44;99317.75;4979301;28;20053;-87
2023/03/07 10:00:09;;;;;;;28.03;12.10;;;;;;;19.46;44.29;99327.00;4978692;28;20065;-88
2023/03/07 10:02:54;;;;;;;27.67;12.15;;;;;;;18.90;45.09;99315.44;4979143;28;20034;-89
2023/03/07 10:05:31;;;;;;;23.13;10.57;;;;;;;18.73;45.77;99327.22;4978159;28;20038;-86
2023/03/07 10:07:59;;;;;;;23.33;11.32;;;;;;;19.81;43.37;99330.16;4995716;28;20077;-88
2023/03/07 10:10:43;;;;;;;28.17;12.05;;;;;;;20.80;42.65;99327.94;4996146;28;20081;-87
2023/03/07 10:13:46;;;;;;;24.73;10.95;;;;;;;21.77;39.39;99338.25;4978095;28;20421;-88
2023/03/07 10:16:35;;;;;;;19.70;9.95;;;;;;;22.73;37.52;99325.03;4955827;28;20076;-87
2023/03/07 10:19:31;;;;;;;32.20;10.13;;;;;;;21.92;37.25;99314.06;4996453;28;20050;-89
2023/03/07 10:22:17;;;;;;;25.13;10.02;;;;;;;20.72;38.70;99317.63;4969755;28;20126;-84
2023/03/07 10:25:03;;;;;;;27.08;9.95;;;;;;;20.86;40.11;99316.13;5005153;28;20038;-84
2023/03/07 10:27:30;;;;;;;21.83;10.15;;;;;;;20.87;40.76;99311.56;5002134;28;20039;-85
2023/03/07 10:29:59;;;;;;;19.92;10.07;;;;;;;19.93;41.76;99311.19;5004332;28;20070;-86
2023/03/07 10:32:45;;;;;;;18.33;10.30;;;;;;;20.00;41.87;99307.22;4996121;28;20389;-86
2023/03/07 10:35:10;;;;;;;26.25;11.25;;;;;;;18.92;44.03;99309.81;4995721;28;20042;-87
2023/03/07 10:37:39;;;;;;;22.10;11.07;;;;;;;19.05;43.67;99298.75;4995450;28;20389;-86
2023/03/07 10:40:05;;;;;;;23.02;10.70;;;;;;;18.46;45.75;99294.84;4978287;28;20027;-88
2023/03/07 10:42:35;;;;;;;20.88;9.45;;;;;;;18.13;46.19;99292.88;4978135;28;20034;-87
2023/03/07 10:45:01;;;;;;;20.70;8.70;;;;;;;17.87;47.68;99299.66;4989916;28;20038;-87
2023/03/07 10:47:28;;;;;;;23.75;10.52;;;;;;;17.67;48.75;99291.22;4984291;28;20030;-88
2023/03/07 10:50:03;;;;;;;31.13;10.82;;;;;;;17.97;48.48;99297.16;4963197;28;20039;-87
2023/03/07 10:52:35;;;;;;;27.00;9.85;;;;;;;17.28;49.19;99297.34;4974997;28;20045;-87
2023/03/07 10:55:34;;;;;;;26.33;10.32;;;;;;;16.86;50.99;99294.81;4992371;28;20042;-86
2023/03/07 10:58:11;;;;;;;27.48;9.73;;;;;;;16.70;51.76;99295.50;4998602;28;20053;-89
2023/03/07 11:00:37;;;;;;;26.55;10.60;;;;;;;16.87;52.32;99290.28;4976506;28;20623;-88
2023/03/07 11:03:03;;;;;;;33.72;11.65;;;;;;;16.46;53.03;99288.44;4979273;28;20069;-90
2023/03/07 11:05:32;;;;;;;22.20;11.25;;;;;;;16.48;53.98;99289.03;4976872;28;20039;-86
2023/03/07 11:07:58;;;;;;;23.38;11.07;;;;;;;16.25;55.21;99276.44;4990930;28;20404;-84
2023/03/07 11:10:30;;;;;;;35.10;12.25;;;;;;;15.86;57.57;99267.13;4987578;28;20309;-85
2023/03/07 11:12:56;;;;;;;33.45;12.73;;;;;;;15.65;60.24;99264.94;4980362;28;20039;-85
2023/03/07 11:15:23;;;;;;;29.20;12.57;;;;;;;15.55;60.82;99263.84;4984589;28;20117;-88
2023/03/07 11:17:50;;;;;;;33.67;13.43;;;;;;;15.93;59.27;99256.34;4983088;28;20069;-87
2023/03/07 11:20:45;;;;;;;23.23;11.35;;;;;;;16.12;57.96;99255.25;4948838;28;20383;-86
2023/03/07 11:23:17;;;;;;;29.80;11.95;;;;;;;15.97;59.27;99244.97;4985004;28;20410;-87
2023/03/07 11:25:43;;;;;;;28.23;11.55;;;;;;;16.00;58.64;99241.88;4980098;28;20035;-85
2023/03/07 11:28:28;;;;;;;31.05;11.25;;;;;;;16.69;56.01;99251.06;4988857;28;20375;-85
2023/03/07 11:31:10;;;;;;;28.38;10.48;;;;;;;16.28;57.53;99240.38;4986997;28;20410;-89